Flight Track Log - Related Links

Times and Time Zones

All times are in EST time to prevent confusion due to time zone crossing. See the UPS1219 flight status page for this flight to view local times or setup timezone preferences in your user account.


Time Position Orientation Groundspeed Altitude Reporting Facility
EST Latitude Longitude Course Direction KTS MPH feet Rate Location/Type
Fri 11:00:32 PM 38.9380 -77.5060 237° Southwest 174 200 2,000  Level FlightAware ADS-B
Fri 11:00:57 PM 38.9250 -77.5320 237° Southwest 237 273 2,600 2,640 Climbing FlightAware ADS-B
Fri 11:01:22 PM 38.9100 -77.5640 239° Southwest 253 291 4,200 4,286 Climbing FlightAware ADS-B
Fri 11:01:46 PM 38.8970 -77.5950 242° Southwest 252 290 6,100 4,462 Climbing FlightAware ADS-B
Fri 11:02:01 PM 38.8940 -77.6180 260° West 260 299 7,100 4,304 Climbing FlightAware ADS-B
Fri 11:02:32 PM 38.8910 -77.6660 265° West 262 302 9,400 4,000 Climbing FlightAware ADS-B
Fri 11:02:55 PM 38.8891 -77.7028 266° West 270 311 10,700 2,262 Climbing FlightAware ADS-B (KWWD)
Fri 11:03:33 PM 38.8841 -77.7728 265° West 324 373 11,700 2,550 Climbing FlightAware ADS-B (KWWD)
Fri 11:04:15 PM 38.8794 -77.8595 266° West 353 406 14,100 3,506 Climbing FlightAware ADS-B (KWWD)
Fri 11:05:02 PM 38.8730 -77.9590 265° West 359 413 16,900 3,143 Climbing FlightAware ADS-B
Fri 11:06:00 PM 38.8640 -78.0850 265° West 375 432 19,600 2,523 Climbing FlightAware ADS-B
Fri 11:06:49 PM 38.8570 -78.1950 265° West 398 458 21,400 2,259 Climbing FlightAware ADS-B
Fri 11:07:25 PM 38.8540 -78.2810 267° West 409 471 22,800 2,357 Climbing FlightAware ADS-B
Fri 11:08:13 PM 38.8430 -78.3980 263° West 415 478 24,700 2,645 Climbing FlightAware ADS-B
Fri 11:08:58 PM 38.8240 -78.5040 257° West 408 470 26,900 2,505 Climbing FlightAware ADS-B
Fri 11:09:44 PM 38.8030 -78.6120 256° West 412 474 28,500 2,147 Climbing FlightAware ADS-B
Fri 11:10:33 PM 38.7870 -78.6970 256° West 401 461 30,300 2,658 Climbing FlightAware ADS-B
Fri 11:11:03 PM 38.7690 -78.7960 257° West 397 457 32,000 2,188 Climbing FlightAware ADS-B
Fri 11:11:58 PM 38.7450 -78.9200 256° West 401 461 33,400 1,670 Climbing FlightAware ADS-B
Fri 11:12:58 PM 38.7190 -79.0570 256° West 395 455 35,200 1,418 Climbing FlightAware ADS-B
Fri 11:13:48 PM 38.6980 -79.1650 256° West 399 459 36,000 453 Climbing FlightAware ADS-B
Fri 11:14:44 PM 38.6720 -79.2990 256° West 396 456 36,000  Level FlightAware ADS-B
Fri 11:15:39 PM 38.6480 -79.4230 256° West 392 451 36,000  Level FlightAware ADS-B
Fri 11:16:05 PM 38.6370 -79.4820 257° West 389 448 36,000  Level FlightAware ADS-B
Fri 11:16:48 PM 38.6180 -79.5760 256° West 389 448 36,000  Level FlightAware ADS-B
Fri 11:17:12 PM 38.6076 -79.6318 257° West 389 448 36,000  Level FlightAware ADS-B (KWWD)
Fri 11:17:44 PM 38.5937 -79.7029 256° West 390 449 36,000  Level FlightAware ADS-B (KWWD)
Fri 11:18:30 PM 38.5732 -79.8057 256° West 391 450 36,000  Level FlightAware ADS-B (KWWD)
Fri 11:19:40 PM 38.5430 -79.9590 256° West 389 448 36,000  Level FlightAware ADS-B
Fri 11:20:05 PM 38.5310 -80.0150 255° West 389 448 36,000  Level FlightAware ADS-B
Fri 11:20:36 PM 38.5180 -80.0840 256° West 388 447 36,000  Level FlightAware ADS-B
Fri 11:21:00 PM 38.5070 -80.1360 255° West 388 447 36,000  Level FlightAware ADS-B
Fri 11:21:58 PM 38.4810 -80.2650 256° West 389 448 36,000  Level FlightAware ADS-B
Fri 11:22:52 PM 38.4600 -80.3680 255° West 389 448 36,000  Level FlightAware ADS-B
Fri 11:23:48 PM 38.4330 -80.5020 256° West 392 451 36,000  Level FlightAware ADS-B
Fri 11:24:12 PM 38.4230 -80.5480 255° West 392 451 36,000  Level FlightAware ADS-B
Fri 11:25:00 PM 38.4040 -80.6390 255° West 392 451 36,000  Level FlightAware ADS-B
Fri 11:25:48 PM 38.3760 -80.7790 256° West 387 445 36,000  Level FlightAware ADS-B
Fri 11:26:13 PM 38.3660 -80.8260 255° West 387 445 36,000  Level FlightAware ADS-B
Fri 11:27:13 PM 38.3420 -80.9380 255° West 387 445 36,000  Level FlightAware ADS-B
Fri 11:28:05 PM 38.3140 -81.0700 255° West 393 452 36,000  Level FlightAware ADS-B
Fri 11:28:52 PM 38.2900 -81.1870 255° West 386 444 36,000  Level FlightAware ADS-B
Fri 11:29:42 PM 38.2690 -81.2810 254° West 385 443 36,000  Level FlightAware ADS-B
Fri 11:30:20 PM 38.2490 -81.3790 255° West 390 449 36,000  Level FlightAware ADS-B
Fri 11:31:08 PM 38.2260 -81.4870 255° West 392 451 36,000  Level FlightAware ADS-B
Fri 11:31:53 PM 38.2050 -81.5850 255° West 392 451 36,000  Level FlightAware ADS-B
Fri 11:32:16 PM 38.1935 -81.6372 254° West 392 451 36,000  Level FlightAware ADS-B
Fri 11:32:48 PM 38.1790 -81.7050 255° West 389 448 36,000  Level FlightAware ADS-B
Fri 11:33:17 PM 38.1639 -81.7732 254° West 390 449 36,000  Level FlightAware ADS-B
Fri 11:34:28 PM 38.1350 -81.9300 257° West 391 450 36,000  Level FlightAware ADS-B
Fri 11:35:11 PM 38.1213 -82.0270 260° West 391 450 36,000  Level FlightAware ADS-B
Fri 11:35:41 PM 38.1113 -82.0948 259° West 389 448 36,000  Level FlightAware ADS-B
Fri 11:36:12 PM 38.1013 -82.1629 259° West 389 448 36,000  Level FlightAware ADS-B
Fri 11:36:46 PM 38.0901 -82.2397 260° West 389 448 36,000  Level FlightAware ADS-B
Fri 11:37:17 PM 38.0797 -82.3097 259° West 388 447 36,000  Level FlightAware ADS-B
Fri 11:37:48 PM 38.0693 -82.3789 259° West 387 445 36,000  Level FlightAware ADS-B
Fri 11:38:19 PM 38.0591 -82.4473 259° West 388 447 36,000  Level FlightAware ADS-B
Fri 11:38:53 PM 38.0476 -82.5237 259° West 388 447 36,000 -273 Level FlightAware ADS-B
Fri 11:39:25 PM 38.0370 -82.5935 259° West 388 447 35,700 -762 Descending FlightAware ADS-B
Fri 11:39:56 PM 38.0266 -82.6625 259° West 383 441 35,200 -984 Descending FlightAware ADS-B
Fri 11:40:26 PM 38.0165 -82.7291 259° West 378 435 34,700 -1,082 Descending FlightAware ADS-B
Fri 11:40:57 PM 38.0065 -82.7943 259° West 377 434 34,100 -1,082 Descending FlightAware ADS-B
Fri 11:41:27 PM 37.9965 -82.8598 259° West 375 432 33,600 -963 Descending FlightAware ADS-B
Fri 11:42:18 PM 37.9800 -82.9700 259° West 378 435 32,800 -957 Descending FlightAware ADS-B
Fri 11:43:01 PM 37.9653 -83.0625 259° West 378 435 32,100 -658 Descending FlightAware ADS-B
Fri 11:43:31 PM 37.9548 -83.1289 259° West 377 434 32,000 -100 Descending FlightAware ADS-B
Fri 11:44:01 PM 37.9445 -83.1940 259° West 377 434 32,000  Level FlightAware ADS-B
Fri 11:44:32 PM 37.9344 -83.2602 259° West 379 436 32,000  Level FlightAware ADS-B
Fri 11:45:16 PM 37.9192 -83.3566 259° West 378 435 32,000  Level FlightAware ADS-B
Fri 11:45:47 PM 37.9089 -83.4222 259° West 377 434 32,000  Level FlightAware ADS-B
Fri 11:46:22 PM 37.8969 -83.4972 259° West 375 432 32,000  Level FlightAware ADS-B
Fri 11:47:03 PM 37.8830 -83.5840 259° West 373 429 32,000 -329 Level FlightAware ADS-B
Fri 11:47:35 PM 37.8720 -83.6530 259° West 371 427 31,600 -867 Descending FlightAware ADS-B
Fri 11:48:26 PM 37.8541 -83.7619 258° West 369 425 30,800 -951 Descending FlightAware ADS-B
Fri 11:48:57 PM 37.8437 -83.8275 259° West 376 433 30,300 -1,065 Descending FlightAware ADS-B
Fri 11:49:28 PM 37.8329 -83.8942 258° West 382 440 29,700 -1,026 Descending FlightAware ADS-B
Fri 11:50:13 PM 37.8163 -83.9957 258° West 390 449 29,000 -947 Descending FlightAware ADS-B
Fri 11:50:44 PM 37.8051 -84.0627 258° West 391 450 28,500 -1,082 Descending FlightAware ADS-B
Fri 11:51:14 PM 37.7938 -84.1312 258° West 392 451 27,900 -1,048 Descending FlightAware ADS-B
Fri 11:51:47 PM 37.7817 -84.2045 258° West 397 457 27,400 -952 Descending FlightAware ADS-B
Fri 11:52:17 PM 37.7700 -84.2740 258° West 401 461 26,900 -1,714 Descending FlightAware ADS-B
Fri 11:53:11 PM 37.7497 -84.3960 258° West 395 455 25,000 -2,617 Descending FlightAware ADS-B
Fri 11:53:51 PM 37.7350 -84.4850 258° West 392 451 22,800 -3,300 Descending FlightAware ADS-B
Fri 11:54:31 PM 37.7200 -84.5750 258° West 395 455 20,600 -3,600 Descending FlightAware ADS-B
Fri 11:55:11 PM 37.7050 -84.6620 258° West 372 428 18,000 -3,867 Descending FlightAware ADS-B
Fri 11:56:01 PM 37.6870 -84.7660 258° West 360 414 14,800 -3,750 Descending FlightAware ADS-B
Fri 11:56:39 PM 37.6740 -84.8440 258° West 354 407 12,500 -3,375 Descending FlightAware ADS-B
Fri 11:57:21 PM 37.6610 -84.9270 259° West 343 395 10,300 -1,929 Descending FlightAware ADS-B
Fri 11:58:03 PM 37.6880 -85.0020 294° West 356 410 9,800 -455 Descending FlightAware ADS-B
Fri 11:58:27 PM 37.7160 -85.0390 314° West 358 412 9,800  Level FlightAware ADS-B
Fri 11:58:51 PM 37.7440 -85.0760 314° West 360 414 9,800  Level FlightAware ADS-B
Fri 11:59:11 PM 37.7660 -85.1070 312° West 361 415 9,800  Level FlightAware ADS-B
Fri 11:59:35 PM 37.7930 -85.1430 314° West 361 415 9,800  Level FlightAware ADS-B
Sat 12:00:04 AM 37.8260 -85.1890 312° West 360 414 9,800  Level FlightAware ADS-B
Sat 12:00:27 AM 37.8510 -85.2240 312° West 359 413 9,800  Level FlightAware ADS-B
Sat 12:00:49 AM 37.8760 -85.2580 313° West 358 412 9,800  Level FlightAware ADS-B
Sat 12:01:21 AM 37.9130 -85.3090 313° West 358 412 9,800  Level FlightAware ADS-B
Sat 12:01:53 AM 37.9470 -85.3570 312° West 358 412 9,800  Level FlightAware ADS-B
Sat 12:02:21 AM 37.9800 -85.4030 312° West 357 411 9,800  Level FlightAware ADS-B
Sat 12:02:41 AM 38.0010 -85.4320 313° West 358 412 9,800  Level FlightAware ADS-B
Sat 12:03:09 AM 38.0320 -85.4750 312° West 333 383 9,800 100 Level FlightAware ADS-B
Sat 12:03:41 AM 38.0610 -85.5170 311° West 284 327 9,900 -346 Climbing FlightAware ADS-B
Sat 12:04:01 AM 38.0790 -85.5410 314° West 267 307 9,500 -1,909 Descending FlightAware ADS-B
Sat 12:04:25 AM 38.0990 -85.5700 311° West 266 306 8,500 -2,500 Descending FlightAware ADS-B
Sat 12:04:49 AM 38.1250 -85.5890 330° Northwest 274 315 7,500 -2,125 Descending FlightAware ADS-B
Sat 12:05:13 AM 38.1530 -85.6020 340° North 268 308 6,800 -1,714 Descending FlightAware ADS-B
Sat 12:05:38 AM 38.1810 -85.6150 340° North 262 302 6,100 -964 Descending FlightAware ADS-B
Sat 12:06:09 AM 38.2170 -85.6300 342° North 247 284 5,900 -203 Descending FlightAware ADS-B
Sat 12:06:37 AM 38.2470 -85.6400 345° North 234 269 5,900  Level FlightAware ADS-B
Sat 12:06:57 AM 38.2680 -85.6470 345° North 231 266 5,900 -136 Level FlightAware ADS-B
Sat 12:07:21 AM 38.2920 -85.6560 344° North 228 262 5,800 -692 Descending FlightAware ADS-B
Sat 12:07:49 AM 38.3210 -85.6670 343° North 226 260 5,300 -1,000 Descending FlightAware ADS-B
Sat 12:08:09 AM 38.3410 -85.6740 345° North 222 255 5,000 -667 Descending FlightAware ADS-B
Sat 12:08:25 AM 38.3570 -85.6800 344° North 222 255 4,900 -300 Descending FlightAware ADS-B
Sat 12:08:49 AM 38.3800 -85.6880 345° North 224 258 4,800  Descending FlightAware ADS-B
Sat 12:09:23 AM 38.4150 -85.7010 344° North 217 250 4,900 97 Climbing FlightAware ADS-B
Sat 12:09:51 AM 38.4390 -85.7110 342° North 203 234 4,900  Level FlightAware ADS-B
Sat 12:10:15 AM 38.4480 -85.7340 297° West 177 204 4,900  Level FlightAware ADS-B
Sat 12:10:43 AM 38.4380 -85.7590 243° Southwest 172 198 4,900 -250 Level FlightAware ADS-B
Sat 12:11:03 AM 38.4290 -85.7770 237° Southwest 168 193 4,700 -923 Descending FlightAware ADS-B
Sat 12:11:35 AM 38.4120 -85.7960 221° Southwest 168 193 4,100 -818 Descending FlightAware ADS-B
Sat 12:12:09 AM 38.3850 -85.7980 183° South 172 198 3,800 -290 Descending FlightAware ADS-B
Sat 12:12:37 AM 38.3620 -85.7920 168° South 177 204 3,800 -346 Level FlightAware ADS-B
Sat 12:13:01 AM 38.3430 -85.7850 164° South 173 199 3,500 -808 Descending FlightAware ADS-B
Sat 12:13:29 AM 38.3230 -85.7780 165° South 159 183 3,100 -750 Descending FlightAware ADS-B
Sat 12:13:57 AM 38.3040 -85.7710 164° South 150 173 2,800 -750 Descending FlightAware ADS-B
Sat 12:14:25 AM 38.2860 -85.7650 165° South 136 157 2,400 -750 Descending FlightAware ADS-B
Sat 12:14:45 AM 38.2730 -85.7610 166° South 123 142 2,200 -682 Descending FlightAware ADS-B
Sat 12:15:09 AM 38.2620 -85.7570 164° South 104 120 1,900 -643 Descending FlightAware ADS-B
Sat 12:15:41 AM 38.2470 -85.7520 165° South 105 121 1,600 -517 Descending FlightAware ADS-B
Sat 12:16:07 AM 38.2340 -85.7470 163° South 107 123 1,400 -536 Descending FlightAware ADS-B
Sat 12:16:37 AM 38.2200 -85.7430 167° South 107 123 1,100 -581 Descending FlightAware ADS-B
Sat 12:17:09 AM 38.2040 -85.7370 164° South 111 128 800 -577 Descending FlightAware ADS-B
Sat 12:17:29 AM 38.1940 -85.7340 167° South 116 133 600 -600 Descending FlightAware ADS-B
Sat 12:18:01 AM 38.1780 -85.7280 164° South 86 99 -1,125 Descending FlightAware ADS-B

Login

Don't have an account? Register now (free) for customized features, flight alerts, and more!